sensor_id;sensor_type;location;lat;lon;timestamp;temperature;humidity
28175;SHT30;59417;44.788;10.334;2023-07-09T00:01:18;25.85;60.40
28175;SHT30;59417;44.788;10.334;2023-07-09T00:03:45;25.69;60.85
28175;SHT30;59417;44.788;10.334;2023-07-09T00:06:14;25.65;61.18
28175;SHT30;59417;44.788;10.334;2023-07-09T00:08:44;25.51;61.82
28175;SHT30;59417;44.788;10.334;2023-07-09T00:11:15;25.54;62.24
28175;SHT30;59417;44.788;10.334;2023-07-09T00:13:41;25.38;62.50
28175;SHT30;59417;44.788;10.334;2023-07-09T00:16:23;25.37;62.49
28175;SHT30;59417;44.788;10.334;2023-07-09T00:18:51;25.35;62.82
28175;SHT30;59417;44.788;10.334;2023-07-09T00:21:19;25.35;62.68
28175;SHT30;59417;44.788;10.334;2023-07-09T00:23:46;25.34;62.85
28175;SHT30;59417;44.788;10.334;2023-07-09T00:26:15;25.23;63.28
28175;SHT30;59417;44.788;10.334;2023-07-09T00:28:49;25.18;63.34
28175;SHT30;59417;44.788;10.334;2023-07-09T00:31:16;25.20;63.17
28175;SHT30;59417;44.788;10.334;2023-07-09T00:33:43;25.21;63.27
28175;SHT30;59417;44.788;10.334;2023-07-09T00:36:27;25.17;63.79
28175;SHT30;59417;44.788;10.334;2023-07-09T00:38:55;25.08;63.22
28175;SHT30;59417;44.788;10.334;2023-07-09T00:41:25;25.06;64.11
28175;SHT30;59417;44.788;10.334;2023-07-09T00:43:52;24.96;63.55
28175;SHT30;59417;44.788;10.334;2023-07-09T00:49:02;25.02;63.69
28175;SHT30;59417;44.788;10.334;2023-07-09T00:51:38;25.16;63.56
28175;SHT30;59417;44.788;10.334;2023-07-09T00:54:31;25.14;63.61
28175;SHT30;59417;44.788;10.334;2023-07-09T00:57:03;25.08;63.60
28175;SHT30;59417;44.788;10.334;2023-07-09T00:59:32;25.11;63.55
28175;SHT30;59417;44.788;10.334;2023-07-09T01:02:00;25.08;63.55
28175;SHT30;59417;44.788;10.334;2023-07-09T01:04:27;25.08;63.67
28175;SHT30;59417;44.788;10.334;2023-07-09T01:06:57;25.14;63.49
28175;SHT30;59417;44.788;10.334;2023-07-09T01:09:24;25.24;63.45
28175;SHT30;59417;44.788;10.334;2023-07-09T01:11:51;25.27;63.80
28175;SHT30;59417;44.788;10.334;2023-07-09T01:14:19;25.17;64.36
28175;SHT30;59417;44.788;10.334;2023-07-09T01:16:55;25.04;64.95
28175;SHT30;59417;44.788;10.334;2023-07-09T01:19:25;24.97;64.76
28175;SHT30;59417;44.788;10.334;2023-07-09T01:22:00;24.93;64.62
28175;SHT30;59417;44.788;10.334;2023-07-09T01:24:49;24.84;64.45
28175;SHT30;59417;44.788;10.334;2023-07-09T01:27:24;24.84;63.85
28175;SHT30;59417;44.788;10.334;2023-07-09T01:29:53;24.97;63.48
28175;SHT30;59417;44.788;10.334;2023-07-09T01:32:20;25.10;62.98
28175;SHT30;59417;44.788;10.334;2023-07-09T01:34:49;25.08;63.36
28175;SHT30;59417;44.788;10.334;2023-07-09T01:37:21;25.11;62.83
28175;SHT30;59417;44.788;10.334;2023-07-09T01:39:48;25.11;62.68
28175;SHT30;59417;44.788;10.334;2023-07-09T01:42:18;25.11;62.91
28175;SHT30;59417;44.788;10.334;2023-07-09T01:44:51;25.03;62.95
28175;SHT30;59417;44.788;10.334;2023-07-09T01:47:19;25.02;63.09
28175;SHT30;59417;44.788;10.334;2023-07-09T01:49:45;24.96;63.12
28175;SHT30;59417;44.788;10.334;2023-07-09T01:52:15;24.99;63.00
28175;SHT30;59417;44.788;10.334;2023-07-09T01:54:42;24.97;63.15
28175;SHT30;59417;44.788;10.334;2023-07-09T01:57:20;24.94;63.38
28175;SHT30;59417;44.788;10.334;2023-07-09T01:59:54;24.86;63.35
28175;SHT30;59417;44.788;10.334;2023-07-09T02:02:23;24.80;63.56
28175;SHT30;59417;44.788;10.334;2023-07-09T02:04:55;24.77;63.87
28175;SHT30;59417;44.788;10.334;2023-07-09T02:07:23;24.79;63.91
28175;SHT30;59417;44.788;10.334;2023-07-09T02:09:49;24.70;64.41
28175;SHT30;59417;44.788;10.334;2023-07-09T02:12:16;24.76;64.22
28175;SHT30;59417;44.788;10.334;2023-07-09T02:14:44;24.76;64.11
28175;SHT30;59417;44.788;10.334;2023-07-09T02:17:11;24.76;64.24
28175;SHT30;59417;44.788;10.334;2023-07-09T02:19:37;24.67;64.33
28175;SHT30;59417;44.788;10.334;2023-07-09T02:22:04;24.72;64.70
28175;SHT30;59417;44.788;10.334;2023-07-09T02:24:31;24.79;64.86
28175;SHT30;59417;44.788;10.334;2023-07-09T02:26:58;24.73;64.65
28175;SHT30;59417;44.788;10.334;2023-07-09T02:29:26;24.69;65.26
28175;SHT30;59417;44.788;10.334;2023-07-09T02:31:54;24.60;65.49
28175;SHT30;59417;44.788;10.334;2023-07-09T02:34:21;24.60;64.77
28175;SHT30;59417;44.788;10.334;2023-07-09T02:36:55;24.57;64.84
28175;SHT30;59417;44.788;10.334;2023-07-09T02:39:22;24.59;64.78
28175;SHT30;59417;44.788;10.334;2023-07-09T02:41:48;24.66;65.55
28175;SHT30;59417;44.788;10.334;2023-07-09T02:44:14;24.72;65.23
28175;SHT30;59417;44.788;10.334;2023-07-09T02:46:40;24.70;65.22
28175;SHT30;59417;44.788;10.334;2023-07-09T02:49:09;24.69;64.45
28175;SHT30;59417;44.788;10.334;2023-07-09T02:51:35;24.63;64.67
28175;SHT30;59417;44.788;10.334;2023-07-09T02:54:02;24.66;64.29
28175;SHT30;59417;44.788;10.334;2023-07-09T02:56:29;24.66;64.29
28175;SHT30;59417;44.788;10.334;2023-07-09T02:58:55;24.73;64.36
28175;SHT30;59417;44.788;10.334;2023-07-09T03:01:21;24.70;64.30
28175;SHT30;59417;44.788;10.334;2023-07-09T03:03:52;24.67;64.45
28175;SHT30;59417;44.788;10.334;2023-07-09T03:06:21;24.67;64.92
28175;SHT30;59417;44.788;10.334;2023-07-09T03:08:48;24.65;64.68
28175;SHT30;59417;44.788;10.334;2023-07-09T03:11:15;24.65;64.42
28175;SHT30;59417;44.788;10.334;2023-07-09T03:13:41;24.63;64.77
28175;SHT30;59417;44.788;10.334;2023-07-09T03:16:07;24.56;64.84
28175;SHT30;59417;44.788;10.334;2023-07-09T03:18:33;24.56;64.86
28175;SHT30;59417;44.788;10.334;2023-07-09T03:20:59;24.60;64.61
28175;SHT30;59417;44.788;10.334;2023-07-09T03:23:25;24.60;64.59
28175;SHT30;59417;44.788;10.334;2023-07-09T03:25:50;24.62;64.86
28175;SHT30;59417;44.788;10.334;2023-07-09T03:28:17;24.57;65.00
28175;SHT30;59417;44.788;10.334;2023-07-09T03:30:47;24.48;65.26
28175;SHT30;59417;44.788;10.334;2023-07-09T03:33:16;24.55;64.86
28175;SHT30;59417;44.788;10.334;2023-07-09T03:35:42;24.55;65.02
28175;SHT30;59417;44.788;10.334;2023-07-09T03:38:10;24.43;65.65
28175;SHT30;59417;44.788;10.334;2023-07-09T03:40:36;24.39;66.34
28175;SHT30;59417;44.788;10.334;2023-07-09T03:43:04;24.33;66.47
28175;SHT30;59417;44.788;10.334;2023-07-09T03:45:33;24.33;67.23
28175;SHT30;59417;44.788;10.334;2023-07-09T03:47:59;24.38;65.62
28175;SHT30;59417;44.788;10.334;2023-07-09T03:50:25;24.43;65.20
28175;SHT30;59417;44.788;10.334;2023-07-09T03:52:51;24.43;65.20
28175;SHT30;59417;44.788;10.334;2023-07-09T03:55:17;24.43;65.15
28175;SHT30;59417;44.788;10.334;2023-07-09T03:57:42;24.41;65.08
28175;SHT30;59417;44.788;10.334;2023-07-09T04:00:08;24.39;65.11
28175;SHT30;59417;44.788;10.334;2023-07-09T04:02:43;24.38;65.06
28175;SHT30;59417;44.788;10.334;2023-07-09T04:05:10;24.32;65.61
28175;SHT30;59417;44.788;10.334;2023-07-09T04:07:36;24.38;65.16
28175;SHT30;59417;44.788;10.334;2023-07-09T04:10:03;24.35;65.37
28175;SHT30;59417;44.788;10.334;2023-07-09T04:12:29;24.38;65.33
28175;SHT30;59417;44.788;10.334;2023-07-09T04:14:55;24.33;65.40
28175;SHT30;59417;44.788;10.334;2023-07-09T04:17:20;24.33;65.60
28175;SHT30;59417;44.788;10.334;2023-07-09T04:19:51;24.25;65.98
28175;SHT30;59417;44.788;10.334;2023-07-09T04:22:17;24.24;65.69
28175;SHT30;59417;44.788;10.334;2023-07-09T04:24:43;24.28;65.83
28175;SHT30;59417;44.788;10.334;2023-07-09T04:27:09;24.26;65.76
28175;SHT30;59417;44.788;10.334;2023-07-09T04:29:35;24.22;65.82
28175;SHT30;59417;44.788;10.334;2023-07-09T04:32:05;24.24;66.45
28175;SHT30;59417;44.788;10.334;2023-07-09T04:34:31;24.25;65.87
28175;SHT30;59417;44.788;10.334;2023-07-09T04:36:57;24.22;66.30
28175;SHT30;59417;44.788;10.334;2023-07-09T04:39:23;24.18;65.94
28175;SHT30;59417;44.788;10.334;2023-07-09T04:41:49;24.19;65.91
28175;SHT30;59417;44.788;10.334;2023-07-09T04:44:17;24.15;66.26
28175;SHT30;59417;44.788;10.334;2023-07-09T04:46:42;24.15;66.56
28175;SHT30;59417;44.788;10.334;2023-07-09T04:49:08;24.16;66.24
28175;SHT30;59417;44.788;10.334;2023-07-09T04:51:35;24.22;65.90
28175;SHT30;59417;44.788;10.334;2023-07-09T04:54:01;24.25;66.00
28175;SHT30;59417;44.788;10.334;2023-07-09T04:56:29;24.28;66.39
28175;SHT30;59417;44.788;10.334;2023-07-09T04:58:56;24.36;66.11
28175;SHT30;59417;44.788;10.334;2023-07-09T05:01:22;24.39;66.07
28175;SHT30;59417;44.788;10.334;2023-07-09T05:03:48;24.33;66.29
28175;SHT30;59417;44.788;10.334;2023-07-09T05:06:14;24.36;66.25
28175;SHT30;59417;44.788;10.334;2023-07-09T05:08:41;24.49;66.49
28175;SHT30;59417;44.788;10.334;2023-07-09T05:11:09;24.48;65.84
28175;SHT30;59417;44.788;10.334;2023-07-09T05:13:36;24.51;65.59
28175;SHT30;59417;44.788;10.334;2023-07-09T05:16:05;24.55;65.65
28175;SHT30;59417;44.788;10.334;2023-07-09T05:18:31;24.55;66.44
28175;SHT30;59417;44.788;10.334;2023-07-09T05:20:57;24.62;65.81
28175;SHT30;59417;44.788;10.334;2023-07-09T05:23:24;24.57;66.38
28175;SHT30;59417;44.788;10.334;2023-07-09T05:26:01;24.69;65.72
28175;SHT30;59417;44.788;10.334;2023-07-09T05:28:29;24.82;65.78
28175;SHT30;59417;44.788;10.334;2023-07-09T05:30:55;24.73;65.85
28175;SHT30;59417;44.788;10.334;2023-07-09T05:33:21;24.67;66.39
28175;SHT30;59417;44.788;10.334;2023-07-09T05:35:47;24.69;65.94
28175;SHT30;59417;44.788;10.334;2023-07-09T05:38:14;24.72;66.16
28175;SHT30;59417;44.788;10.334;2023-07-09T05:40:41;24.79;65.65
28175;SHT30;59417;44.788;10.334;2023-07-09T05:43:10;24.76;65.94
28175;SHT30;59417;44.788;10.334;2023-07-09T05:45:39;24.76;66.27
28175;SHT30;59417;44.788;10.334;2023-07-09T05:48:05;24.77;66.23
28175;SHT30;59417;44.788;10.334;2023-07-09T05:50:33;24.91;65.84
28175;SHT30;59417;44.788;10.334;2023-07-09T05:52:59;24.96;66.27
28175;SHT30;59417;44.788;10.334;2023-07-09T05:55:25;24.99;65.86
28175;SHT30;59417;44.788;10.334;2023-07-09T05:57:52;25.06;66.09
28175;SHT30;59417;44.788;10.334;2023-07-09T06:00:18;25.04;65.03
28175;SHT30;59417;44.788;10.334;2023-07-09T06:02:44;25.10;65.29
28175;SHT30;59417;44.788;10.334;2023-07-09T06:05:10;25.08;64.92
28175;SHT30;59417;44.788;10.334;2023-07-09T06:07:37;25.21;64.91
28175;SHT30;59417;44.788;10.334;2023-07-09T06:10:05;25.16;64.88
28175;SHT30;59417;44.788;10.334;2023-07-09T06:12:31;25.08;65.17
28175;SHT30;59417;44.788;10.334;2023-07-09T06:14:56;25.11;65.59
28175;SHT30;59417;44.788;10.334;2023-07-09T06:17:22;25.14;65.38
28175;SHT30;59417;44.788;10.334;2023-07-09T06:19:48;25.13;65.13
28175;SHT30;59417;44.788;10.334;2023-07-09T06:22:14;25.21;65.07
28175;SHT30;59417;44.788;10.334;2023-07-09T06:24:39;25.23;65.04
28175;SHT30;59417;44.788;10.334;2023-07-09T06:27:05;25.31;64.44
28175;SHT30;59417;44.788;10.334;2023-07-09T06:29:31;25.26;64.86
28175;SHT30;59417;44.788;10.334;2023-07-09T06:31:57;25.26;65.64
28175;SHT30;59417;44.788;10.334;2023-07-09T06:34:23;25.31;65.44
28175;SHT30;59417;44.788;10.334;2023-07-09T06:36:48;25.47;64.70
28175;SHT30;59417;44.788;10.334;2023-07-09T06:39:14;25.44;64.98
28175;SHT30;59417;44.788;10.334;2023-07-09T06:41:40;25.54;64.57
28175;SHT30;59417;44.788;10.334;2023-07-09T06:44:09;25.64;64.40
28175;SHT30;59417;44.788;10.334;2023-07-09T06:46:35;25.57;64.15
28175;SHT30;59417;44.788;10.334;2023-07-09T06:49:03;25.49;64.77
28175;SHT30;59417;44.788;10.334;2023-07-09T06:51:31;25.55;65.29
28175;SHT30;59417;44.788;10.334;2023-07-09T06:53:56;25.62;64.35
28175;SHT30;59417;44.788;10.334;2023-07-09T06:56:23;25.82;62.50
28175;SHT30;59417;44.788;10.334;2023-07-09T06:58:48;25.79;62.25
28175;SHT30;59417;44.788;10.334;2023-07-09T07:01:14;25.78;63.32
28175;SHT30;59417;44.788;10.334;2023-07-09T07:03:40;25.77;63.45
28175;SHT30;59417;44.788;10.334;2023-07-09T07:06:06;25.81;63.44
28175;SHT30;59417;44.788;10.334;2023-07-09T07:08:33;25.98;62.86
28175;SHT30;59417;44.788;10.334;2023-07-09T07:11:01;26.06;61.65
28175;SHT30;59417;44.788;10.334;2023-07-09T07:13:32;26.26;62.62
28175;SHT30;59417;44.788;10.334;2023-07-09T07:15:59;26.23;61.34
28175;SHT30;59417;44.788;10.334;2023-07-09T07:18:25;26.20;61.89
28175;SHT30;59417;44.788;10.334;2023-07-09T07:20:50;26.22;62.63
28175;SHT30;59417;44.788;10.334;2023-07-09T07:23:17;26.35;61.07
28175;SHT30;59417;44.788;10.334;2023-07-09T07:25:44;26.50;60.28
28175;SHT30;59417;44.788;10.334;2023-07-09T07:28:10;26.40;60.90
28175;SHT30;59417;44.788;10.334;2023-07-09T07:30:36;26.59;60.94
28175;SHT30;59417;44.788;10.334;2023-07-09T07:33:02;26.50;60.48
28175;SHT30;59417;44.788;10.334;2023-07-09T07:35:28;26.51;60.78
28175;SHT30;59417;44.788;10.334;2023-07-09T07:37:54;26.79;59.09
28175;SHT30;59417;44.788;10.334;2023-07-09T07:40:19;26.80;59.13
28175;SHT30;59417;44.788;10.334;2023-07-09T07:42:45;26.90;58.36
28175;SHT30;59417;44.788;10.334;2023-07-09T07:45:12;27.02;58.73
28175;SHT30;59417;44.788;10.334;2023-07-09T07:47:37;26.98;58.65
28175;SHT30;59417;44.788;10.334;2023-07-09T07:50:06;27.00;58.94
28175;SHT30;59417;44.788;10.334;2023-07-09T07:52:32;27.05;58.66
28175;SHT30;59417;44.788;10.334;2023-07-09T07:55:05;27.11;58.61
28175;SHT30;59417;44.788;10.334;2023-07-09T07:57:33;27.29;58.59
28175;SHT30;59417;44.788;10.334;2023-07-09T07:59:58;27.25;59.48
28175;SHT30;59417;44.788;10.334;2023-07-09T08:02:25;27.28;59.26
28175;SHT30;59417;44.788;10.334;2023-07-09T08:04:51;27.49;57.59
28175;SHT30;59417;44.788;10.334;2023-07-09T08:07:18;27.52;58.67
28175;SHT30;59417;44.788;10.334;2023-07-09T08:09:45;27.70;58.43
28175;SHT30;59417;44.788;10.334;2023-07-09T08:12:14;27.76;57.15
28175;SHT30;59417;44.788;10.334;2023-07-09T08:14:42;27.73;58.35
28175;SHT30;59417;44.788;10.334;2023-07-09T08:17:10;27.82;57.48
28175;SHT30;59417;44.788;10.334;2023-07-09T08:19:51;27.86;56.55
28175;SHT30;59417;44.788;10.334;2023-07-09T08:22:17;27.99;55.54
28175;SHT30;59417;44.788;10.334;2023-07-09T08:24:46;28.13;54.87
28175;SHT30;59417;44.788;10.334;2023-07-09T08:27:12;27.97;55.12
28175;SHT30;59417;44.788;10.334;2023-07-09T08:29:38;28.07;56.37
28175;SHT30;59417;44.788;10.334;2023-07-09T08:32:05;28.12;55.03
28175;SHT30;59417;44.788;10.334;2023-07-09T08:34:31;28.16;54.68
28175;SHT30;59417;44.788;10.334;2023-07-09T08:36:57;28.40;55.19
28175;SHT30;59417;44.788;10.334;2023-07-09T08:39:23;28.40;56.00
28175;SHT30;59417;44.788;10.334;2023-07-09T08:41:54;28.47;55.83
28175;SHT30;59417;44.788;10.334;2023-07-09T08:44:34;28.38;56.85
28175;SHT30;59417;44.788;10.334;2023-07-09T08:50:02;28.67;55.93
28175;SHT30;59417;44.788;10.334;2023-07-09T08:52:39;28.61;57.25
28175;SHT30;59417;44.788;10.334;2023-07-09T08:55:15;28.75;55.10
28175;SHT30;59417;44.788;10.334;2023-07-09T08:57:44;28.84;55.40
28175;SHT30;59417;44.788;10.334;2023-07-09T09:03:44;28.91;53.66
28175;SHT30;59417;44.788;10.334;2023-07-09T09:06:16;28.95;53.96
28175;SHT30;59417;44.788;10.334;2023-07-09T09:11:38;28.94;54.24
28175;SHT30;59417;44.788;10.334;2023-07-09T09:14:31;29.25;55.02
28175;SHT30;59417;44.788;10.334;2023-07-09T09:16:58;29.25;53.94
28175;SHT30;59417;44.788;10.334;2023-07-09T09:19:38;29.26;53.17
28175;SHT30;59417;44.788;10.334;2023-07-09T09:22:12;29.26;53.84
28175;SHT30;59417;44.788;10.334;2023-07-09T09:27:45;29.54;53.15
28175;SHT30;59417;44.788;10.334;2023-07-09T09:30:17;29.60;50.97
28175;SHT30;59417;44.788;10.334;2023-07-09T09:32:46;29.73;52.69
28175;SHT30;59417;44.788;10.334;2023-07-09T09:35:13;29.73;50.59
28175;SHT30;59417;44.788;10.334;2023-07-09T09:37:39;29.78;51.48
28175;SHT30;59417;44.788;10.334;2023-07-09T09:40:08;29.80;51.27
28175;SHT30;59417;44.788;10.334;2023-07-09T09:42:34;29.93;50.29
28175;SHT30;59417;44.788;10.334;2023-07-09T09:45:01;29.96;51.71
28175;SHT30;59417;44.788;10.334;2023-07-09T09:47:27;29.96;49.47
28175;SHT30;59417;44.788;10.334;2023-07-09T09:49:56;30.03;50.59
28175;SHT30;59417;44.788;10.334;2023-07-09T09:52:27;30.00;50.79
28175;SHT30;59417;44.788;10.334;2023-07-09T09:55:05;30.07;51.05
28175;SHT30;59417;44.788;10.334;2023-07-09T09:57:35;30.18;50.51
28175;SHT30;59417;44.788;10.334;2023-07-09T10:00:00;30.27;49.84
28175;SHT30;59417;44.788;10.334;2023-07-09T10:02:26;30.47;49.36
28175;SHT30;59417;44.788;10.334;2023-07-09T10:04:52;30.36;49.19
28175;SHT30;59417;44.788;10.334;2023-07-09T10:07:22;30.36;49.73
28175;SHT30;59417;44.788;10.334;2023-07-09T10:09:54;30.47;49.31
28175;SHT30;59417;44.788;10.334;2023-07-09T10:17:58;30.58;48.47
28175;SHT30;59417;44.788;10.334;2023-07-09T10:26:01;30.65;48.46
28175;SHT30;59417;44.788;10.334;2023-07-09T10:28:48;30.66;49.70
28175;SHT30;59417;44.788;10.334;2023-07-09T10:34:34;30.95;49.35
28175;SHT30;59417;44.788;10.334;2023-07-09T10:39:47;31.19;49.35
28175;SHT30;59417;44.788;10.334;2023-07-09T10:42:34;31.24;48.02
28175;SHT30;59417;44.788;10.334;2023-07-09T10:45:03;31.31;47.08
28175;SHT30;59417;44.788;10.334;2023-07-09T10:47:38;31.26;48.07
28175;SHT30;59417;44.788;10.334;2023-07-09T10:50:12;31.30;48.51
28175;SHT30;59417;44.788;10.334;2023-07-09T10:52:45;31.34;46.28
28175;SHT30;59417;44.788;10.334;2023-07-09T10:55:23;31.12;45.55
28175;SHT30;59417;44.788;10.334;2023-07-09T11:00:25;31.30;46.90
28175;SHT30;59417;44.788;10.334;2023-07-09T11:02:59;31.44;45.60
28175;SHT30;59417;44.788;10.334;2023-07-09T11:05:26;31.43;47.86
28175;SHT30;59417;44.788;10.334;2023-07-09T11:08:10;31.57;47.86
28175;SHT30;59417;44.788;10.334;2023-07-09T11:10:46;31.76;46.60
28175;SHT30;59417;44.788;10.334;2023-07-09T11:13:38;31.91;47.07
28175;SHT30;59417;44.788;10.334;2023-07-09T11:16:06;32.04;47.00
28175;SHT30;59417;44.788;10.334;2023-07-09T11:18:34;32.09;45.86
28175;SHT30;59417;44.788;10.334;2023-07-09T11:21:06;32.08;45.82
28175;SHT30;59417;44.788;10.334;2023-07-09T11:23:54;32.12;47.35
28175;SHT30;59417;44.788;10.334;2023-07-09T11:26:27;32.25;47.02
28175;SHT30;59417;44.788;10.334;2023-07-09T11:28:55;32.45;47.23
28175;SHT30;59417;44.788;10.334;2023-07-09T11:34:02;32.73;46.69
28175;SHT30;59417;44.788;10.334;2023-07-09T11:36:30;32.79;46.78
28175;SHT30;59417;44.788;10.334;2023-07-09T11:38:57;32.87;46.13
28175;SHT30;59417;44.788;10.334;2023-07-09T11:41:39;32.96;45.48
28175;SHT30;59417;44.788;10.334;2023-07-09T11:44:19;33.03;45.51
28175;SHT30;59417;44.788;10.334;2023-07-09T11:49:58;33.19;45.34
28175;SHT30;59417;44.788;10.334;2023-07-09T11:54:54;33.27;43.63
28175;SHT30;59417;44.788;10.334;2023-07-09T11:57:19;33.23;44.34
28175;SHT30;59417;44.788;10.334;2023-07-09T11:59:45;33.27;43.30
28175;SHT30;59417;44.788;10.334;2023-07-09T12:02:19;33.27;43.16
28175;SHT30;59417;44.788;10.334;2023-07-09T12:04:50;33.35;45.87
28175;SHT30;59417;44.788;10.334;2023-07-09T12:07:17;33.50;44.79
28175;SHT30;59417;44.788;10.334;2023-07-09T12:09:48;33.53;44.52
28175;SHT30;59417;44.788;10.334;2023-07-09T12:12:26;33.60;43.40
28175;SHT30;59417;44.788;10.334;2023-07-09T12:14:53;33.60;42.55
28175;SHT30;59417;44.788;10.334;2023-07-09T12:17:25;33.62;44.40
28175;SHT30;59417;44.788;10.334;2023-07-09T12:19:52;33.75;44.56
28175;SHT30;59417;44.788;10.334;2023-07-09T12:22:22;33.85;43.60
28175;SHT30;59417;44.788;10.334;2023-07-09T12:24:50;33.91;43.73
28175;SHT30;59417;44.788;10.334;2023-07-09T12:27:20;33.92;41.87
28175;SHT30;59417;44.788;10.334;2023-07-09T12:29:46;33.94;43.37
28175;SHT30;59417;44.788;10.334;2023-07-09T12:32:14;33.98;43.96
28175;SHT30;59417;44.788;10.334;2023-07-09T12:34:40;34.04;44.26
28175;SHT30;59417;44.788;10.334;2023-07-09T12:37:16;34.19;44.81
28175;SHT30;59417;44.788;10.334;2023-07-09T12:39:42;34.31;44.42
28175;SHT30;59417;44.788;10.334;2023-07-09T12:42:17;34.43;43.39
28175;SHT30;59417;44.788;10.334;2023-07-09T12:44:44;34.53;43.85
28175;SHT30;59417;44.788;10.334;2023-07-09T12:47:15;34.63;43.43
28175;SHT30;59417;44.788;10.334;2023-07-09T12:49:43;34.70;42.41
28175;SHT30;59417;44.788;10.334;2023-07-09T12:52:19;34.69;42.41
28175;SHT30;59417;44.788;10.334;2023-07-09T12:54:58;34.74;41.60
28175;SHT30;59417;44.788;10.334;2023-07-09T12:57:25;34.78;42.65
28175;SHT30;59417;44.788;10.334;2023-07-09T12:59:53;34.74;42.60
28175;SHT30;59417;44.788;10.334;2023-07-09T13:02:24;34.79;42.08
28175;SHT30;59417;44.788;10.334;2023-07-09T13:05:00;34.74;40.87
28175;SHT30;59417;44.788;10.334;2023-07-09T13:07:32;34.67;41.97
28175;SHT30;59417;44.788;10.334;2023-07-09T13:10:19;34.66;41.82
28175;SHT30;59417;44.788;10.334;2023-07-09T13:12:50;34.67;41.61
28175;SHT30;59417;44.788;10.334;2023-07-09T13:15:23;34.70;42.17
28175;SHT30;59417;44.788;10.334;2023-07-09T13:17:58;34.64;41.33
28175;SHT30;59417;44.788;10.334;2023-07-09T13:20:26;34.66;41.45
28175;SHT30;59417;44.788;10.334;2023-07-09T13:22:52;34.73;42.04
28175;SHT30;59417;44.788;10.334;2023-07-09T13:25:18;34.73;42.07
28175;SHT30;59417;44.788;10.334;2023-07-09T13:27:44;34.70;41.81
28175;SHT30;59417;44.788;10.334;2023-07-09T13:30:11;34.70;43.17
28175;SHT30;59417;44.788;10.334;2023-07-09T13:32:41;34.70;42.52
28175;SHT30;59417;44.788;10.334;2023-07-09T13:35:26;34.79;41.86
28175;SHT30;59417;44.788;10.334;2023-07-09T13:37:51;34.76;40.87
28175;SHT30;59417;44.788;10.334;2023-07-09T13:40:17;34.67;41.79
28175;SHT30;59417;44.788;10.334;2023-07-09T13:42:44;34.60;42.21
28175;SHT30;59417;44.788;10.334;2023-07-09T13:45:30;34.56;42.99
28175;SHT30;59417;44.788;10.334;2023-07-09T13:47:56;34.53;40.41
28175;SHT30;59417;44.788;10.334;2023-07-09T13:50:21;34.56;41.90
28175;SHT30;59417;44.788;10.334;2023-07-09T13:52:49;34.56;41.49
28175;SHT30;59417;44.788;10.334;2023-07-09T13:55:23;34.57;43.64
28175;SHT30;59417;44.788;10.334;2023-07-09T13:57:50;34.57;43.22
28175;SHT30;59417;44.788;10.334;2023-07-09T14:00:16;34.46;41.24
28175;SHT30;59417;44.788;10.334;2023-07-09T14:02:43;34.46;41.12
28175;SHT30;59417;44.788;10.334;2023-07-09T14:05:11;34.45;42.57
28175;SHT30;59417;44.788;10.334;2023-07-09T14:07:39;34.46;42.55
28175;SHT30;59417;44.788;10.334;2023-07-09T14:10:13;34.46;42.68
28175;SHT30;59417;44.788;10.334;2023-07-09T14:12:46;34.42;42.38
28175;SHT30;59417;44.788;10.334;2023-07-09T14:15:19;34.31;40.98
28175;SHT30;59417;44.788;10.334;2023-07-09T14:17:50;34.21;41.83
28175;SHT30;59417;44.788;10.334;2023-07-09T14:20:18;34.12;41.54
28175;SHT30;59417;44.788;10.334;2023-07-09T14:22:47;34.26;43.19
28175;SHT30;59417;44.788;10.334;2023-07-09T14:25:22;34.31;43.14
28175;SHT30;59417;44.788;10.334;2023-07-09T14:27:50;34.35;42.18
28175;SHT30;59417;44.788;10.334;2023-07-09T14:30:21;34.35;43.01
28175;SHT30;59417;44.788;10.334;2023-07-09T14:32:49;34.35;42.20
28175;SHT30;59417;44.788;10.334;2023-07-09T14:35:21;34.31;41.97
28175;SHT30;59417;44.788;10.334;2023-07-09T14:37:50;34.22;42.61
28175;SHT30;59417;44.788;10.334;2023-07-09T14:40:17;34.15;41.95
28175;SHT30;59417;44.788;10.334;2023-07-09T14:42:43;34.16;41.95
28175;SHT30;59417;44.788;10.334;2023-07-09T14:47:43;34.43;43.66
28175;SHT30;59417;44.788;10.334;2023-07-09T14:50:09;34.43;43.55
28175;SHT30;59417;44.788;10.334;2023-07-09T14:52:35;34.38;41.97
28175;SHT30;59417;44.788;10.334;2023-07-09T14:55:02;34.35;41.80
28175;SHT30;59417;44.788;10.334;2023-07-09T14:57:28;34.21;41.46
28175;SHT30;59417;44.788;10.334;2023-07-09T14:59:56;34.42;41.03
28175;SHT30;59417;44.788;10.334;2023-07-09T15:02:33;34.39;42.10
28175;SHT30;59417;44.788;10.334;2023-07-09T15:05:05;34.36;42.30
28175;SHT30;59417;44.788;10.334;2023-07-09T15:07:33;34.32;41.61
28175;SHT30;59417;44.788;10.334;2023-07-09T15:10:02;34.26;41.85
28175;SHT30;59417;44.788;10.334;2023-07-09T15:12:34;34.26;42.50
28175;SHT30;59417;44.788;10.334;2023-07-09T15:15:37;34.25;42.61
28175;SHT30;59417;44.788;10.334;2023-07-09T15:18:10;34.31;43.39
28175;SHT30;59417;44.788;10.334;2023-07-09T15:20:36;34.25;43.72
28175;SHT30;59417;44.788;10.334;2023-07-09T15:23:03;34.23;44.55
28175;SHT30;59417;44.788;10.334;2023-07-09T15:25:29;34.25;42.21
28175;SHT30;59417;44.788;10.334;2023-07-09T15:27:59;34.19;43.13
28175;SHT30;59417;44.788;10.334;2023-07-09T15:30:27;34.18;43.47
28175;SHT30;59417;44.788;10.334;2023-07-09T15:32:56;34.12;43.06
28175;SHT30;59417;44.788;10.334;2023-07-09T15:35:22;34.15;42.68
28175;SHT30;59417;44.788;10.334;2023-07-09T15:37:49;34.12;43.02
28175;SHT30;59417;44.788;10.334;2023-07-09T15:40:23;34.23;43.25
28175;SHT30;59417;44.788;10.334;2023-07-09T15:42:52;34.28;43.35
28175;SHT30;59417;44.788;10.334;2023-07-09T15:45:21;34.22;43.07
28175;SHT30;59417;44.788;10.334;2023-07-09T15:47:49;34.12;43.01
28175;SHT30;59417;44.788;10.334;2023-07-09T15:50:25;34.06;42.72
28175;SHT30;59417;44.788;10.334;2023-07-09T15:52:53;34.15;43.26
28175;SHT30;59417;44.788;10.334;2023-07-09T15:55:21;34.29;43.31
28175;SHT30;59417;44.788;10.334;2023-07-09T15:57:50;34.36;42.94
28175;SHT30;59417;44.788;10.334;2023-07-09T16:02:43;34.29;43.86
28175;SHT30;59417;44.788;10.334;2023-07-09T16:05:35;34.21;42.82
28175;SHT30;59417;44.788;10.334;2023-07-09T16:08:03;34.22;43.22
28175;SHT30;59417;44.788;10.334;2023-07-09T16:10:30;34.22;42.63
28175;SHT30;59417;44.788;10.334;2023-07-09T16:12:57;34.13;42.09
28175;SHT30;59417;44.788;10.334;2023-07-09T16:15:26;34.23;43.48